Time;durP1;ratioP1;P1;durP2;ratioP2;P2;SDS_P1;SDS_P2;PMS_P1;PMS_P2;Temp;Humidity;BMP_temperature;BMP_pressure;BME280_temperature;BME280_humidity;BME280_pressure;Samples;Min_cycle;Max_cycle;Signal;HPM_P1;HPM_P2
2021/09/04 00:01:43;;;;;;;11.40;8.75;;;;;;;18.46;66.52;100387.34;5070384;28;20406;-76
2021/09/04 00:04:09;;;;;;;13.23;9.23;;;;;;;18.45;67.12;100395.84;5057174;28;20875;-76
2021/09/04 00:06:34;;;;;;;11.23;9.30;;;;;;;18.43;66.64;100398.09;5062866;28;20395;-76
2021/09/04 00:09:01;;;;;;;14.80;9.33;;;;;;;18.40;66.65;100401.44;5061345;28;20957;-76
2021/09/04 00:11:26;;;;;;;11.68;10.00;;;;;;;18.37;66.54;100402.84;5059173;28;20389;-76
2021/09/04 00:13:51;;;;;;;10.80;9.80;;;;;;;18.31;66.41;100398.53;5069820;28;20892;-76
2021/09/04 00:16:17;;;;;;;11.38;10.18;;;;;;;18.26;66.84;100406.84;5053866;28;20484;-76
2021/09/04 00:18:42;;;;;;;11.70;9.77;;;;;;;18.24;67.04;100409.09;5063270;28;20417;-76
2021/09/04 00:21:07;;;;;;;11.30;10.03;;;;;;;18.18;67.30;100398.50;5056906;28;20405;-76
2021/09/04 00:23:32;;;;;;;14.10;9.87;;;;;;;18.15;67.25;100397.13;5055250;28;20397;-76
2021/09/04 00:25:58;;;;;;;10.87;9.60;;;;;;;18.13;67.48;100394.69;5058728;28;20395;-76
2021/09/04 00:28:23;;;;;;;10.18;8.68;;;;;;;18.11;67.60;100396.13;5064747;28;20473;-76
2021/09/04 00:30:49;;;;;;;10.10;8.73;;;;;;;18.11;67.58;100390.63;5053853;28;20414;-76
2021/09/04 00:33:14;;;;;;;10.13;9.10;;;;;;;18.09;67.49;100392.84;5056957;28;20409;-76
2021/09/04 00:35:39;;;;;;;10.10;8.70;;;;;;;18.06;68.16;100394.25;5067470;28;20408;-76
2021/09/04 00:38:05;;;;;;;9.70;8.70;;;;;;;18.06;68.41;100393.44;5061279;28;20400;-76
2021/09/04 00:40:30;;;;;;;9.60;8.70;;;;;;;18.07;68.47;100389.59;5061813;28;20488;-76
2021/09/04 00:42:56;;;;;;;11.10;9.00;;;;;;;18.06;67.97;100387.94;5053657;28;20429;-76
2021/09/04 00:45:21;;;;;;;10.37;9.30;;;;;;;18.05;67.82;100384.38;5050445;28;20403;-76
2021/09/04 00:47:57;;;;;;;10.03;8.93;;;;;;;18.04;67.62;100384.69;5062142;28;20507;-77
2021/09/04 00:50:23;;;;;;;11.18;9.75;;;;;;;18.01;67.66;100371.59;5060657;28;20404;-76
2021/09/04 00:52:49;;;;;;;10.32;9.25;;;;;;;17.99;67.92;100380.09;5053512;28;20398;-76
2021/09/04 00:55:14;;;;;;;10.27;9.23;;;;;;;17.97;68.13;100387.81;5062893;28;20492;-76
2021/09/04 00:57:39;;;;;;;12.80;9.20;;;;;;;17.96;67.80;100385.34;5060744;28;20501;-76
2021/09/04 01:00:05;;;;;;;12.70;10.03;;;;;;;17.91;67.95;100386.25;5062233;28;20447;-77
2021/09/04 01:02:31;;;;;;;13.10;9.07;;;;;;;17.89;68.04;100387.63;5053234;28;20389;-78
2021/09/04 01:04:56;;;;;;;10.73;9.63;;;;;;;17.88;68.11;100388.75;5063171;28;20490;-77
2021/09/04 01:07:22;;;;;;;11.00;9.90;;;;;;;17.83;68.36;100384.16;5054337;28;20422;-77
2021/09/04 01:09:47;;;;;;;10.37;9.37;;;;;;;17.81;68.74;100388.31;5059908;28;20401;-75
2021/09/04 01:12:13;;;;;;;11.03;9.83;;;;;;;17.80;68.67;100389.41;5066846;28;20474;-75
2021/09/04 01:14:39;;;;;;;10.88;9.25;;;;;;;17.81;68.97;100382.81;5057223;28;20401;-74
2021/09/04 01:17:05;;;;;;;11.57;8.70;;;;;;;17.80;69.08;100386.66;5067284;28;20404;-74
2021/09/04 01:19:31;;;;;;;10.50;9.25;;;;;;;17.81;68.88;100385.56;5052884;28;20444;-75
2021/09/04 01:21:57;;;;;;;13.55;9.80;;;;;;;17.81;67.59;100382.81;5065762;28;20863;-77
2021/09/04 01:24:22;;;;;;;10.03;9.03;;;;;;;17.76;67.78;100386.44;5068484;28;20422;-77
2021/09/04 01:26:47;;;;;;;12.23;8.83;;;;;;;17.69;68.13;100380.50;5056560;28;20420;-77
2021/09/04 01:29:13;;;;;;;10.57;8.50;;;;;;;17.65;68.08;100382.19;5052899;28;20396;-75
2021/09/04 01:31:39;;;;;;;10.43;8.50;;;;;;;17.61;68.00;100381.16;5065992;28;20870;-77
2021/09/04 01:34:04;;;;;;;13.20;9.47;;;;;;;17.57;68.07;100383.66;5054474;28;20412;-77
2021/09/04 01:36:36;;;;;;;12.73;10.47;;;;;;;17.53;68.28;100382.59;5061411;28;20405;-77
2021/09/04 01:39:04;;;;;;;19.10;14.85;;;;;;;17.52;68.46;100378.19;5060137;28;20403;-77
2021/09/04 01:41:29;;;;;;;52.75;35.05;;;;;;;17.53;68.38;100381.75;5059882;28;20851;-74
2021/09/04 01:43:55;;;;;;;37.60;25.83;;;;;;;17.53;68.50;100388.06;5052235;28;20392;-77
2021/09/04 01:46:21;;;;;;;28.60;20.75;;;;;;;17.53;69.01;100384.50;5056305;28;20424;-74
2021/09/04 01:48:46;;;;;;;29.37;22.03;;;;;;;17.51;68.94;100373.84;5063364;28;20409;-75
2021/09/04 01:51:13;;;;;;;28.42;21.17;;;;;;;17.48;69.04;100373.63;5052130;28;20397;-77
2021/09/04 01:53:39;;;;;;;22.58;17.27;;;;;;;17.48;69.54;100381.84;5058549;28;20428;-77
2021/09/04 01:56:04;;;;;;;18.43;14.37;;;;;;;17.46;69.56;100384.03;5066863;28;20627;-77
2021/09/04 01:58:29;;;;;;;14.05;12.13;;;;;;;17.46;69.56;100384.84;5064031;28;20401;-77
2021/09/04 02:00:54;;;;;;;47.33;30.17;;;;;;;17.46;69.56;100381.28;5052153;28;20436;-77
2021/09/04 02:03:20;;;;;;;34.37;24.53;;;;;;;17.47;69.43;100377.47;5053094;28;20401;-77
2021/09/04 02:05:45;;;;;;;35.00;23.70;;;;;;;17.45;69.53;100372.25;5062378;28;20930;-74
2021/09/04 02:08:11;;;;;;;24.10;18.43;;;;;;;17.43;69.63;100371.75;5056725;28;20498;-74
2021/09/04 02:10:36;;;;;;;17.65;15.15;;;;;;;17.41;69.39;100365.75;5063334;28;20394;-77
2021/09/04 02:13:02;;;;;;;10.70;9.60;;;;;;;17.39;69.70;100367.13;5058773;28;20520;-77
2021/09/04 02:15:27;;;;;;;9.10;8.27;;;;;;;17.35;70.01;100371.59;5067906;28;20495;-77
2021/09/04 02:17:52;;;;;;;11.13;8.20;;;;;;;17.33;70.19;100371.03;5049973;28;20749;-77
2021/09/04 02:20:17;;;;;;;10.60;8.90;;;;;;;17.31;70.68;100368.59;5051587;28;21118;-77
2021/09/04 02:22:43;;;;;;;9.33;8.33;;;;;;;17.31;70.89;100371.34;5052704;28;20401;-77
2021/09/04 02:25:09;;;;;;;10.85;9.35;;;;;;;17.31;70.82;100365.88;5052929;28;20491;-77
2021/09/04 02:27:35;;;;;;;10.38;9.32;;;;;;;17.30;71.08;100366.97;5055214;28;20483;-77
2021/09/04 02:30:05;;;;;;;10.97;9.43;;;;;;;17.29;71.56;100361.78;5070520;28;20453;-77
2021/09/04 02:32:31;;;;;;;10.02;9.13;;;;;;;17.24;71.78;100365.41;5059925;28;20416;-77
2021/09/04 02:34:56;;;;;;;9.98;9.10;;;;;;;17.22;71.81;100361.31;5056451;28;20507;-77
2021/09/04 02:37:22;;;;;;;9.47;8.63;;;;;;;17.25;71.37;100360.75;5053941;28;20846;-77
2021/09/04 02:39:48;;;;;;;10.68;9.10;;;;;;;17.26;71.31;100349.47;5089704;28;20379;-77
2021/09/04 02:42:14;;;;;;;12.43;9.70;;;;;;;17.24;69.61;100354.44;5062335;28;20451;-77
2021/09/04 02:44:39;;;;;;;12.67;9.23;;;;;;;17.21;68.37;100355.03;5059059;28;20421;-77
2021/09/04 02:47:04;;;;;;;11.97;8.80;;;;;;;17.10;68.07;100351.56;5062012;28;20739;-77
2021/09/04 02:49:30;;;;;;;11.27;8.53;;;;;;;17.03;68.00;100350.28;5056395;28;20436;-77
2021/09/04 02:51:55;;;;;;;9.67;8.50;;;;;;;16.95;68.33;100345.44;5066800;28;20454;-77
2021/09/04 02:54:20;;;;;;;9.57;8.17;;;;;;;16.88;68.08;100348.53;5058971;28;20397;-77
2021/09/04 02:56:45;;;;;;;9.20;7.67;;;;;;;16.84;68.13;100346.66;5068431;28;20400;-77
2021/09/04 02:59:11;;;;;;;10.90;7.90;;;;;;;16.82;67.80;100346.13;5054685;28;20400;-77
2021/09/04 03:01:36;;;;;;;8.00;7.30;;;;;;;16.80;67.81;100349.16;5063835;28;20905;-77
2021/09/04 03:04:02;;;;;;;8.53;7.60;;;;;;;16.80;67.87;100351.06;5051937;28;20394;-77
2021/09/04 03:06:27;;;;;;;9.00;8.10;;;;;;;16.80;67.40;100354.63;5057820;28;20403;-78
2021/09/04 03:08:54;;;;;;;8.97;8.07;;;;;;;16.80;67.50;100351.06;5052208;28;20405;-77
2021/09/04 03:11:19;;;;;;;9.77;8.00;;;;;;;16.73;67.39;100348.66;5049641;28;20764;-77
2021/09/04 03:13:45;;;;;;;11.47;8.50;;;;;;;16.69;67.89;100344.06;5061328;28;20457;-77
2021/09/04 03:16:11;;;;;;;8.60;7.90;;;;;;;16.68;67.56;100337.78;5059858;28;20765;-77
2021/09/04 03:18:36;;;;;;;8.52;7.60;;;;;;;16.67;68.02;100338.06;5070643;28;20925;-77
2021/09/04 03:21:02;;;;;;;10.53;8.40;;;;;;;16.65;68.70;100345.75;5061018;28;20434;-77
2021/09/04 03:23:27;;;;;;;9.67;8.67;;;;;;;16.63;69.15;100343.28;5064988;28;20880;-77
2021/09/04 03:25:52;;;;;;;11.48;8.60;;;;;;;16.63;68.84;100347.97;5058771;28;20466;-77
2021/09/04 03:28:18;;;;;;;10.10;8.27;;;;;;;16.67;68.74;100359.94;5070691;28;20407;-77
2021/09/04 03:30:43;;;;;;;10.87;8.50;;;;;;;16.66;68.84;100358.34;5059056;28;20426;-77
2021/09/04 03:33:08;;;;;;;11.40;8.30;;;;;;;16.66;69.01;100352.84;5073800;28;20400;-78
2021/09/04 03:35:33;;;;;;;10.43;8.40;;;;;;;16.65;69.81;100354.78;5062069;28;20409;-77
2021/09/04 03:37:59;;;;;;;10.90;8.13;;;;;;;16.64;70.00;100355.03;5069193;28;20403;-77
2021/09/04 03:40:24;;;;;;;11.13;8.90;;;;;;;16.62;70.59;100357.25;5069224;28;20433;-77
2021/09/04 03:42:49;;;;;;;10.27;8.73;;;;;;;16.62;70.61;100354.53;5086592;28;20405;-77
2021/09/04 03:45:15;;;;;;;11.90;8.87;;;;;;;16.60;70.89;100358.34;5054281;28;20413;-77
2021/09/04 03:47:40;;;;;;;9.85;8.93;;;;;;;16.63;70.96;100356.16;5052633;28;20425;-77
2021/09/04 03:50:06;;;;;;;11.07;8.70;;;;;;;16.65;70.84;100351.22;5054444;28;20401;-77
2021/09/04 03:52:31;;;;;;;9.25;8.35;;;;;;;16.67;70.94;100357.22;5059052;28;20399;-77
2021/09/04 03:54:56;;;;;;;11.10;8.83;;;;;;;16.67;70.72;100344.34;5060282;28;20391;-77
2021/09/04 03:57:22;;;;;;;10.40;9.30;;;;;;;16.63;70.80;100351.50;5054990;28;20388;-77
2021/09/04 03:59:50;;;;;;;14.03;9.13;;;;;;;16.62;70.69;100347.16;5052666;28;20879;-77
2021/09/04 04:02:15;;;;;;;11.88;8.65;;;;;;;16.59;70.87;100344.97;5053483;28;20857;-77
2021/09/04 04:04:40;;;;;;;12.13;9.27;;;;;;;16.58;70.75;100346.91;5064684;28;20499;-77
2021/09/04 04:07:05;;;;;;;12.55;8.63;;;;;;;16.58;70.87;100346.06;5069781;28;20411;-77
2021/09/04 04:09:31;;;;;;;11.37;8.83;;;;;;;16.57;70.92;100353.47;5062222;28;20478;-77
2021/09/04 04:11:56;;;;;;;14.27;9.20;;;;;;;16.55;71.01;100357.59;5056355;28;20409;-76
2021/09/04 04:14:21;;;;;;;13.07;9.63;;;;;;;16.56;71.29;100356.50;5060768;28;20911;-77
2021/09/04 04:16:47;;;;;;;13.53;9.27;;;;;;;16.57;71.21;100356.19;5062721;28;20477;-77
2021/09/04 04:19:12;;;;;;;14.40;9.38;;;;;;;16.57;70.93;100352.66;5064692;28;20424;-77
2021/09/04 04:21:38;;;;;;;13.83;9.13;;;;;;;16.52;71.08;100364.44;5068996;28;20402;-77
2021/09/04 04:24:03;;;;;;;12.80;9.18;;;;;;;16.45;71.13;100357.66;5053988;28;20398;-77
2021/09/04 04:26:29;;;;;;;11.77;9.67;;;;;;;16.46;71.29;100370.22;5071138;28;20441;-77
2021/09/04 04:28:54;;;;;;;16.30;9.50;;;;;;;16.49;71.42;100367.75;5060293;28;20417;-77
2021/09/04 04:31:19;;;;;;;10.87;9.53;;;;;;;16.51;71.28;100364.69;5068798;28;20403;-77
2021/09/04 04:33:45;;;;;;;10.87;9.77;;;;;;;16.51;71.49;100368.25;5052547;28;20474;-77
2021/09/04 04:36:10;;;;;;;10.77;9.63;;;;;;;16.51;71.59;100362.78;5061240;28;20399;-77
2021/09/04 04:38:35;;;;;;;9.70;8.80;;;;;;;16.50;71.71;100363.88;5066407;28;20404;-77
2021/09/04 04:41:03;;;;;;;12.20;8.07;;;;;;;16.50;70.60;100366.63;5055328;28;20467;-77
2021/09/04 04:43:29;;;;;;;9.73;8.25;;;;;;;16.42;68.99;100364.50;5059425;28;20428;-77
2021/09/04 04:45:54;;;;;;;10.55;7.97;;;;;;;16.34;68.85;100367.84;5060986;28;20822;-77
2021/09/04 04:48:20;;;;;;;11.37;8.73;;;;;;;16.25;68.89;100372.28;5066465;28;20770;-77
2021/09/04 04:50:45;;;;;;;9.93;8.87;;;;;;;16.16;68.63;100374.00;5056262;28;20403;-77
2021/09/04 04:53:12;;;;;;;12.50;8.05;;;;;;;16.09;69.13;100373.50;5069524;28;20388;-77
2021/09/04 04:55:37;;;;;;;9.60;8.35;;;;;;;16.07;69.13;100378.41;5063125;28;20781;-77
2021/09/04 04:58:02;;;;;;;9.17;8.27;;;;;;;16.04;68.82;100381.72;5063922;28;20398;-77
2021/09/04 05:00:28;;;;;;;9.53;8.10;;;;;;;16.02;68.41;100379.28;5057375;28;20397;-77
2021/09/04 05:02:53;;;;;;;9.53;8.57;;;;;;;16.01;69.12;100382.28;5066119;28;20415;-77
2021/09/04 05:05:18;;;;;;;10.87;8.40;;;;;;;15.98;69.31;100380.94;5061716;28;20417;-77
2021/09/04 05:07:44;;;;;;;10.17;8.03;;;;;;;15.95;69.56;100386.97;5052132;28;20421;-77
2021/09/04 05:10:09;;;;;;;12.00;8.63;;;;;;;15.96;69.73;100383.16;5054095;28;20481;-77
2021/09/04 05:12:35;;;;;;;12.68;8.75;;;;;;;15.98;69.62;100393.78;5062762;28;20416;-77
2021/09/04 05:15:00;;;;;;;10.80;8.93;;;;;;;15.99;69.23;100384.50;5057417;28;20426;-76
2021/09/04 05:17:25;;;;;;;11.60;9.07;;;;;;;16.00;69.82;100391.59;5068267;28;20399;-76
2021/09/04 05:19:50;;;;;;;10.57;8.37;;;;;;;16.01;69.87;100393.22;5071998;28;20512;-76
2021/09/04 05:22:16;;;;;;;11.23;8.57;;;;;;;15.99;69.78;100382.56;5072075;28;20398;-76
2021/09/04 05:24:41;;;;;;;9.00;8.17;;;;;;;16.02;69.88;100394.84;5053290;28;22464;-77
2021/09/04 05:27:06;;;;;;;10.23;7.83;;;;;;;16.06;69.97;100390.47;5055168;28;20445;-77
2021/09/04 05:29:32;;;;;;;9.50;8.30;;;;;;;16.12;69.85;100402.19;5057243;28;20397;-76
2021/09/04 05:31:57;;;;;;;13.50;7.72;;;;;;;16.13;69.64;100393.72;5059508;28;20408;-76
2021/09/04 05:34:22;;;;;;;10.53;8.60;;;;;;;16.14;69.56;100394.50;5055922;28;20446;-76
2021/09/04 05:36:48;;;;;;;11.63;8.80;;;;;;;16.17;69.41;100400.22;5067685;28;20394;-76
2021/09/04 05:39:13;;;;;;;10.38;8.23;;;;;;;16.17;69.59;100397.47;5071243;28;20798;-76
2021/09/04 05:41:38;;;;;;;14.70;8.27;;;;;;;16.19;69.60;100398.03;5063493;28;20408;-76
2021/09/04 05:44:04;;;;;;;14.05;8.35;;;;;;;16.18;69.53;100395.56;5055297;28;20888;-76
2021/09/04 05:46:29;;;;;;;11.90;8.23;;;;;;;16.22;69.58;100399.38;5068976;28;20520;-76
2021/09/04 05:48:54;;;;;;;9.93;7.68;;;;;;;16.25;70.07;100396.06;5060190;28;20752;-77
2021/09/04 05:51:20;;;;;;;11.10;8.03;;;;;;;16.28;70.06;100400.97;5060528;28;20405;-76
2021/09/04 05:53:45;;;;;;;10.13;8.87;;;;;;;16.31;70.45;100406.69;5053192;28;20798;-77
2021/09/04 05:56:10;;;;;;;14.27;9.18;;;;;;;16.36;70.62;100400.38;5067611;28;20385;-76
2021/09/04 05:58:36;;;;;;;11.70;8.93;;;;;;;16.39;71.20;100405.28;5054430;28;20823;-76
2021/09/04 06:01:01;;;;;;;12.47;9.37;;;;;;;16.39;71.45;100399.81;5064454;28;20406;-76
2021/09/04 06:03:26;;;;;;;12.90;9.67;;;;;;;16.40;70.98;100401.47;5059602;28;20776;-76
2021/09/04 06:05:54;;;;;;;10.87;9.73;;;;;;;16.42;71.52;100400.06;5057967;28;20451;-77
2021/09/04 06:08:19;;;;;;;13.68;10.20;;;;;;;16.45;71.76;100404.97;5056757;28;20507;-76
2021/09/04 06:10:45;;;;;;;12.43;10.03;;;;;;;16.49;71.55;100402.47;5061171;28;20491;-76
2021/09/04 06:13:10;;;;;;;12.17;9.43;;;;;;;16.50;71.30;100401.34;5059755;28;20463;-76
2021/09/04 06:15:35;;;;;;;15.33;9.37;;;;;;;16.54;71.42;100403.25;5054878;28;20756;-78
2021/09/04 06:18:00;;;;;;;12.47;8.60;;;;;;;16.60;70.81;100398.56;5058952;28;20830;-76
2021/09/04 06:20:26;;;;;;;12.07;8.97;;;;;;;16.65;70.92;100387.59;5050332;28;20443;-76
2021/09/04 06:22:51;;;;;;;15.23;8.57;;;;;;;16.70;70.96;100392.19;5053916;28;20405;-77
2021/09/04 06:25:16;;;;;;;16.83;9.47;;;;;;;16.74;71.35;100385.06;5064460;28;20858;-77
2021/09/04 06:27:42;;;;;;;19.65;10.00;;;;;;;16.75;71.56;100390.25;5051151;28;20456;-77
2021/09/04 06:30:08;;;;;;;15.37;9.63;;;;;;;16.78;71.30;100388.84;5052304;28;20748;-77
2021/09/04 06:32:33;;;;;;;16.50;9.57;;;;;;;16.79;71.61;100388.59;5055277;28;20762;-77
2021/09/04 06:34:59;;;;;;;14.03;9.73;;;;;;;16.83;71.59;100388.81;5055865;28;20413;-77
2021/09/04 06:37:24;;;;;;;11.40;10.10;;;;;;;16.85;71.87;100392.91;5057829;28;20497;-77
2021/09/04 06:39:49;;;;;;;12.17;9.23;;;;;;;16.88;71.41;100392.31;5051465;28;20417;-76
2021/09/04 06:42:15;;;;;;;10.63;9.63;;;;;;;16.87;71.68;100393.41;5049853;28;20459;-77
2021/09/04 06:44:40;;;;;;;11.50;10.30;;;;;;;16.93;71.80;100397.75;5058984;28;20437;-77
2021/09/04 06:47:06;;;;;;;10.50;9.50;;;;;;;16.96;71.61;100402.63;5054736;28;20817;-77
2021/09/04 06:49:31;;;;;;;13.50;10.80;;;;;;;16.98;71.20;100394.97;5058284;28;20396;-76
2021/09/04 06:51:56;;;;;;;11.13;9.77;;;;;;;16.95;71.11;100405.69;5058174;28;20409;-76
2021/09/04 06:54:24;;;;;;;11.83;9.90;;;;;;;16.93;71.68;100403.22;5052293;28;20413;-76
2021/09/04 06:56:50;;;;;;;18.15;9.93;;;;;;;16.93;71.28;100405.94;5053437;28;20572;-76
2021/09/04 06:59:15;;;;;;;11.88;9.73;;;;;;;16.96;71.48;100405.38;5062460;28;20402;-77
2021/09/04 07:01:41;;;;;;;11.40;10.20;;;;;;;16.97;71.41;100400.72;5059215;28;20423;-77
2021/09/04 07:04:06;;;;;;;10.97;9.87;;;;;;;16.96;71.35;100404.56;5022420;28;20468;-77
2021/09/04 07:06:31;;;;;;;11.30;9.87;;;;;;;16.92;71.43;100406.25;5016987;28;20406;-76
2021/09/04 07:08:57;;;;;;;14.02;9.88;;;;;;;16.92;71.39;100406.25;4999288;28;20507;-76
2021/09/04 07:11:22;;;;;;;11.40;10.20;;;;;;;16.92;71.46;100409.81;4994973;28;20492;-76
2021/09/04 07:13:47;;;;;;;11.20;10.20;;;;;;;16.96;72.01;100415.50;4990664;28;20460;-77
2021/09/04 07:16:13;;;;;;;13.20;9.80;;;;;;;17.04;72.08;100418.44;4995365;28;21013;-78
2021/09/04 07:18:38;;;;;;;11.13;9.97;;;;;;;17.08;71.92;100405.81;5002424;28;20873;-78
2021/09/04 07:21:03;;;;;;;11.80;9.32;;;;;;;17.11;71.49;100418.13;4992863;28;20509;-76
2021/09/04 07:23:29;;;;;;;11.60;9.30;;;;;;;17.16;71.40;100420.78;4996574;28;20412;-76
2021/09/04 07:25:54;;;;;;;10.20;9.20;;;;;;;17.18;71.28;100420.50;5002103;28;20940;-77
2021/09/04 07:28:19;;;;;;;13.77;10.73;;;;;;;17.12;71.64;100415.06;4992017;28;20890;-78
2021/09/04 07:30:45;;;;;;;12.13;10.67;;;;;;;17.18;72.01;100415.84;5000608;28;20405;-77
2021/09/04 07:33:10;;;;;;;15.73;10.57;;;;;;;17.25;71.69;100415.50;5001322;28;20876;-78
2021/09/04 07:35:35;;;;;;;11.40;10.27;;;;;;;17.31;71.78;100422.56;5007984;28;20455;-76
2021/09/04 07:38:00;;;;;;;10.10;9.17;;;;;;;17.37;71.39;100418.66;5007618;28;21096;-77
2021/09/04 07:40:26;;;;;;;10.47;9.37;;;;;;;17.40;71.21;100418.06;5000517;28;20444;-77
2021/09/04 07:42:51;;;;;;;11.30;9.73;;;;;;;17.38;71.00;100423.88;5006829;28;20495;-77
2021/09/04 07:45:16;;;;;;;11.00;9.90;;;;;;;17.42;71.22;100427.63;5017615;28;20425;-77
2021/09/04 07:47:42;;;;;;;10.77;9.67;;;;;;;17.44;71.42;100419.13;5007786;28;20431;-77
2021/09/04 07:50:07;;;;;;;10.47;9.37;;;;;;;17.46;71.67;100428.69;5004915;28;20497;-77
2021/09/04 07:52:33;;;;;;;11.98;9.57;;;;;;;17.50;71.81;100434.41;4997791;28;20392;-77
2021/09/04 07:54:58;;;;;;;12.60;8.90;;;;;;;17.58;71.83;100437.34;5009086;28;20878;-76
2021/09/04 07:57:24;;;;;;;12.53;9.40;;;;;;;17.65;72.03;100436.19;5003920;28;20450;-77
2021/09/04 07:59:49;;;;;;;10.77;9.47;;;;;;;17.66;71.54;100444.13;4993239;28;20411;-77
2021/09/04 08:02:14;;;;;;;11.95;9.57;;;;;;;17.69;71.42;100438.03;4999814;28;20421;-77
2021/09/04 08:04:39;;;;;;;11.70;9.83;;;;;;;17.75;70.97;100438.81;4997978;28;20799;-77
2021/09/04 08:07:07;;;;;;;11.63;9.23;;;;;;;17.77;70.58;100437.41;5013371;28;20421;-76
2021/09/04 08:09:33;;;;;;;14.25;10.30;;;;;;;17.85;70.81;100441.44;4998371;28;20399;-77
2021/09/04 08:11:58;;;;;;;13.03;11.33;;;;;;;17.91;70.95;100438.34;5008626;28;20464;-77
2021/09/04 08:14:23;;;;;;;14.40;11.87;;;;;;;17.95;70.74;100430.31;5009576;28;20413;-76
2021/09/04 08:16:49;;;;;;;15.90;11.93;;;;;;;17.97;71.05;100436.34;5012479;28;20408;-77
2021/09/04 08:19:14;;;;;;;14.37;10.00;;;;;;;18.01;69.81;100434.66;4998881;28;20880;-77
2021/09/04 08:21:39;;;;;;;12.02;10.18;;;;;;;18.09;69.67;100433.97;4994694;28;20809;-77
2021/09/04 08:24:05;;;;;;;16.03;11.10;;;;;;;18.20;69.52;100443.72;5000802;28;20903;-77
2021/09/04 08:26:30;;;;;;;11.50;10.00;;;;;;;18.26;68.90;100447.19;5012632;28;20436;-76
2021/09/04 08:28:56;;;;;;;12.67;10.37;;;;;;;18.33;68.86;100451.19;4996295;28;20406;-76
2021/09/04 08:31:21;;;;;;;12.40;10.05;;;;;;;18.45;68.76;100448.00;4995865;28;20409;-77
2021/09/04 08:33:47;;;;;;;16.10;10.13;;;;;;;18.56;68.37;100450.34;5014738;28;20444;-77
2021/09/04 08:36:12;;;;;;;13.07;10.10;;;;;;;18.60;68.13;100445.88;5006782;28;20414;-76
2021/09/04 08:38:37;;;;;;;12.95;10.57;;;;;;;18.63;68.06;100445.28;5006904;28;20412;-77
2021/09/04 08:41:04;;;;;;;12.83;9.10;;;;;;;18.67;68.26;100444.69;5001420;28;20419;-77
2021/09/04 08:43:29;;;;;;;11.52;9.40;;;;;;;18.72;67.81;100453.66;4999378;28;20767;-77
2021/09/04 08:45:55;;;;;;;12.10;10.47;;;;;;;18.78;68.11;100446.97;5003191;28;20398;-77
2021/09/04 08:48:20;;;;;;;10.10;9.07;;;;;;;18.85;67.45;100447.41;5003235;28;20474;-77
2021/09/04 08:50:46;;;;;;;13.68;9.77;;;;;;;18.93;67.48;100451.41;4997875;28;20886;-77
2021/09/04 08:53:11;;;;;;;13.50;8.97;;;;;;;19.01;66.87;100445.22;4995482;28;20406;-77
2021/09/04 08:55:37;;;;;;;10.57;9.10;;;;;;;19.15;66.82;100448.81;4994014;28;20406;-77
2021/09/04 08:58:03;;;;;;;10.20;9.17;;;;;;;19.27;66.34;100451.88;5000208;28;20416;-77
2021/09/04 09:00:29;;;;;;;9.38;8.45;;;;;;;19.42;66.16;100451.66;5021455;28;20456;-77
2021/09/04 09:02:55;;;;;;;11.83;8.47;;;;;;;19.60;65.45;100447.97;4995280;28;20482;-76
2021/09/04 09:05:21;;;;;;;9.30;8.40;;;;;;;19.88;64.94;100448.00;4995579;28;20556;-76
2021/09/04 09:07:47;;;;;;;9.93;8.93;;;;;;;20.38;63.50;100452.44;5003082;28;20413;-77
2021/09/04 09:10:30;;;;;;;9.73;8.00;;;;;;;20.53;62.96;100446.56;5003737;28;20411;-77
2021/09/04 09:12:55;;;;;;;9.38;8.35;;;;;;;20.71;62.22;100451.06;4998145;28;20389;-77
2021/09/04 09:15:29;;;;;;;10.40;8.57;;;;;;;20.96;61.21;100444.13;5010827;28;20408;-76
2021/09/04 09:18:13;;;;;;;9.37;8.53;;;;;;;21.16;60.00;100440.91;5000713;28;20402;-77
2021/09/04 09:20:43;;;;;;;11.52;8.98;;;;;;;21.37;60.06;100434.84;5008936;28;20737;-77
2021/09/04 09:23:13;;;;;;;10.73;8.23;;;;;;;21.66;58.64;100440.66;4993711;28;20382;-76
2021/09/04 09:25:41;;;;;;;8.98;8.07;;;;;;;22.10;57.44;100434.94;4998715;28;20901;-77
2021/09/04 09:28:11;;;;;;;11.00;8.65;;;;;;;22.66;55.84;100434.03;4993399;28;20949;-77
2021/09/04 09:30:49;;;;;;;10.30;8.25;;;;;;;22.93;55.47;100432.06;4997526;28;20476;-76
2021/09/04 09:33:17;;;;;;;10.13;8.87;;;;;;;23.27;54.42;100434.75;5019667;28;20932;-77
2021/09/04 09:35:45;;;;;;;11.93;8.38;;;;;;;23.44;53.97;100425.63;5008182;28;20404;-77
2021/09/04 09:38:14;;;;;;;11.13;8.10;;;;;;;23.61;53.79;100429.09;4999477;28;20976;-78
2021/09/04 09:40:41;;;;;;;9.95;7.65;;;;;;;24.04;52.86;100431.66;5009953;28;20409;-77
2021/09/04 09:43:14;;;;;;;7.75;7.05;;;;;;;24.80;50.50;100435.00;5002381;28;20406;-77
2021/09/04 09:46:00;;;;;;;8.15;7.35;;;;;;;25.66;47.81;100424.97;4993271;28;20398;-77
2021/09/04 09:48:29;;;;;;;7.75;7.00;;;;;;;26.42;46.31;100424.22;5004835;28;20422;-77
2021/09/04 09:50:57;;;;;;;8.45;7.63;;;;;;;26.89;44.54;100421.63;5014890;28;20918;-77
2021/09/04 09:53:23;;;;;;;8.20;7.40;;;;;;;27.04;44.18;100420.84;4996812;28;20426;-77
2021/09/04 09:55:51;;;;;;;7.15;6.40;;;;;;;27.27;44.88;100421.88;4994351;28;20901;-75
2021/09/04 09:58:18;;;;;;;7.65;6.88;;;;;;;28.03;42.90;100427.00;5005072;28;20398;-76
2021/09/04 10:00:44;;;;;;;7.40;6.70;;;;;;;28.55;41.88;100426.59;5002061;28;20397;-75
2021/09/04 10:03:13;;;;;;;7.70;7.00;;;;;;;28.50;41.82;100420.50;5012230;28;20408;-75
2021/09/04 10:05:38;;;;;;;7.07;6.57;;;;;;;28.57;40.44;100429.03;5013334;28;20452;-75
2021/09/04 10:08:04;;;;;;;9.10;6.67;;;;;;;28.80;40.20;100427.16;4996462;28;20428;-75
2021/09/04 10:10:35;;;;;;;7.43;6.83;;;;;;;28.90;39.97;100418.19;5003089;28;20935;-75
2021/09/04 10:13:01;;;;;;;6.87;6.27;;;;;;;29.19;38.94;100414.75;4993429;28;20906;-75
2021/09/04 10:15:37;;;;;;;7.53;6.85;;;;;;;29.83;38.13;100419.50;4997081;28;20776;-75
2021/09/04 10:18:06;;;;;;;6.60;6.10;;;;;;;30.28;37.73;100409.38;4996334;28;20432;-75
2021/09/04 10:20:33;;;;;;;48.53;9.88;;;;;;;30.78;35.77;100411.66;5002915;28;20909;-75
2021/09/04 10:23:14;;;;;;;7.43;6.70;;;;;;;31.74;33.57;100409.84;4996470;28;20399;-75
2021/09/04 10:25:39;;;;;;;7.35;6.68;;;;;;;32.26;32.97;100409.41;4992258;28;20912;-75
2021/09/04 10:28:04;;;;;;;13.87;10.07;;;;;;;33.31;31.21;100413.03;4993225;28;20442;-75
2021/09/04 10:30:38;;;;;;;7.83;7.07;;;;;;;34.43;29.85;100414.16;5004950;28;20469;-75
2021/09/04 10:33:05;;;;;;;6.93;6.15;;;;;;;35.17;29.28;100410.22;4996886;28;20472;-75
2021/09/04 10:36:07;;;;;;;8.43;6.70;;;;;;;36.10;27.36;100403.41;5006019;28;20425;-76
2021/09/04 10:38:35;;;;;;;6.63;6.13;;;;;;;37.06;26.07;100407.91;4996824;28;20500;-75
2021/09/04 10:41:19;;;;;;;7.15;6.45;;;;;;;37.37;25.39;100417.94;5006789;28;20409;-75
2021/09/04 10:43:47;;;;;;;7.55;6.32;;;;;;;37.54;25.17;100414.06;5010668;28;20429;-75
2021/09/04 10:46:15;;;;;;;6.80;6.20;;;;;;;37.63;24.50;100410.66;4992188;28;20403;-75
2021/09/04 10:48:42;;;;;;;6.78;5.68;;;;;;;37.57;24.82;100410.38;4994573;28;20424;-75
2021/09/04 10:51:10;;;;;;;8.10;6.35;;;;;;;37.72;25.12;100410.91;5005048;28;20794;-75
2021/09/04 10:53:52;;;;;;;7.77;6.97;;;;;;;37.43;25.12;100407.75;5008328;28;20412;-75
2021/09/04 10:56:24;;;;;;;6.60;6.10;;;;;;;37.55;24.97;100406.34;5003643;28;20397;-75
2021/09/04 10:58:53;;;;;;;7.53;6.57;;;;;;;37.64;24.96;100406.63;4993610;28;20415;-75
2021/09/04 11:01:26;;;;;;;8.95;6.40;;;;;;;37.44;25.02;100393.16;4998617;28;20437;-75
2021/09/04 11:03:54;;;;;;;8.15;6.00;;;;;;;37.38;25.16;100399.72;4991958;28;20402;-75
2021/09/04 11:06:21;;;;;;;6.57;5.97;;;;;;;37.28;24.53;100390.19;4992877;28;20497;-75
2021/09/04 11:08:48;;;;;;;11.00;6.47;;;;;;;36.74;25.28;100386.53;5015504;28;20419;-74
2021/09/04 11:11:16;;;;;;;6.57;6.03;;;;;;;36.38;25.89;100388.19;4998711;28;20384;-75
2021/09/04 11:13:44;;;;;;;8.20;5.90;;;;;;;35.39;27.59;100377.88;4996952;28;20434;-75